Rechercher aéroport 
image banner adimage banner adimage banner ad
image banner ad

PN50 - Skyline Airstrip

Situé à Shoemakersville, United States

ICAO - PN50, IATA -

Données fournies par Airmate  

Information générale

Coordonnées: N40°30'25" W75°56'30"
Élévation : 580 feet MSL.
Variation magnétique : -12° East
Voir autres Aéroports à Pennsylvania

Données opérationnelles

Special qualification required
Heure actuelle UTC:
Heure actuelle locale:
METAR: KRDG 131954Z 20005KT 10SM OVC024 24/19 A2988 RMK AO2 SLP121 T02390189 $
TAF: KRDG 131728Z 1318/1418 18004KT P6SM BKN025 FM140100 19004KT P6SM -SHRA OVC025 FM140700 VRB03KT 4SM -SHRA BR OVC015 FM141700 24005KT P6SM BKN012
Voir NOTAMs / SUP AIP / TFR affectant cet aéroport [VIEW]
Fréquences de communication: [VIEW]

Pistes:

Identifiant RWYQFULongueur (ft)Largeur (ft)SurfaceLDA (ft)
0973°2150100GRASS
27253°2150100GRASS

Coordonnées de l'aéroport

Adresse: Shoemakersville United States

Vue satellite de PN50